Time;durP1;ratioP1;P1;durP2;ratioP2;P2;SDS_P1;SDS_P2;PMS_P1;PMS_P2;Temp;Humidity;BMP_temperature;BMP_pressure;BME280_temperature;BME280_humidity;BME280_pressure;Samples;Min_cycle;Max_cycle;Signal;HPM_P1;HPM_P2
2023/03/19 00:01:10;;;;;;;;;;;5.30;99.90;;;;;;4997522;28;19971;-82
2023/03/19 00:03:36;;;;;;;;;;;5.40;99.90;;;;;;4997418;28;20004;-83
2023/03/19 00:06:01;;;;;;;;;;;5.30;99.90;;;;;;4997648;28;19914;-82
2023/03/19 00:08:27;;;;;;;;;;;5.30;99.90;;;;;;4997522;28;20007;-82
2023/03/19 00:10:53;;;;;;;;;;;5.20;99.90;;;;;;4997288;28;19909;-82
2023/03/19 00:13:18;;;;;;;;;;;5.10;99.90;;;;;;4997907;28;20370;-82
2023/03/19 00:15:44;;;;;;;;;;;5.10;99.90;;;;;;5014915;28;19917;-83
2023/03/19 00:18:10;;;;;;;;;;;5.10;99.90;;;;;;4981229;28;19975;-82
2023/03/19 00:20:35;;;;;;;;;;;5.00;99.90;;;;;;5015287;28;19999;-83
2023/03/19 00:23:01;;;;;;;;;;;5.00;99.90;;;;;;4997461;28;19913;-82
2023/03/19 00:25:27;;;;;;;;;;;4.90;99.90;;;;;;4996970;28;19910;-82
2023/03/19 00:27:53;;;;;;;;;;;4.90;99.90;;;;;;4981400;28;20266;-82
2023/03/19 00:30:20;;;;;;;;;;;4.80;99.90;;;;;;4997441;28;19914;-82
2023/03/19 00:32:46;;;;;;;;;;;4.80;99.90;;;;;;4997659;28;19916;-82
2023/03/19 00:35:11;;;;;;;;;;;4.70;99.90;;;;;;4997663;28;19918;-82
2023/03/19 00:37:37;;;;;;;;;;;4.60;99.90;;;;;;4998053;28;19909;-82
2023/03/19 00:40:03;;;;;;;;;;;4.60;99.90;;;;;;5022434;28;19914;-82
2023/03/19 00:42:29;;;;;;;;;;;4.60;99.90;;;;;;5019360;28;19963;-82
2023/03/19 00:44:55;;;;;;;;;;;4.60;99.90;;;;;;5000443;28;20028;-82
2023/03/19 00:47:21;;;;;;;;;;;4.70;99.90;;;;;;4983642;28;20331;-82
2023/03/19 00:49:47;;;;;;;;;;;4.70;99.90;;;;;;4999542;28;20392;-82
2023/03/19 00:52:12;;;;;;;;;;;4.70;99.90;;;;;;4999197;28;20404;-82
2023/03/19 00:54:38;;;;;;;;;;;4.70;99.90;;;;;;5015744;28;19918;-82
2023/03/19 00:57:04;;;;;;;;;;;4.70;99.90;;;;;;4998077;28;20021;-82
2023/03/19 00:59:30;;;;;;;;;;;4.70;99.90;;;;;;5016207;28;19914;-82
2023/03/19 01:01:55;;;;;;;;;;;4.70;99.90;;;;;;4997733;28;20328;-82
2023/03/19 01:04:22;;;;;;;;;;;4.60;99.90;;;;;;5014798;28;19914;-82
2023/03/19 01:06:47;;;;;;;;;;;4.60;99.90;;;;;;5006832;23;19930;-77
2023/03/19 01:09:14;;;;;;;;;;;4.60;99.90;;;;;;5015110;28;20432;-77
2023/03/19 01:11:40;;;;;;;;;;;4.60;99.90;;;;;;5014017;28;19913;-77
2023/03/19 01:14:06;;;;;;;;;;;4.60;99.90;;;;;;5013866;28;20270;-77
2023/03/19 01:16:33;;;;;;;;;;;4.50;99.90;;;;;;5013947;28;19917;-77
2023/03/19 01:18:59;;;;;;;;;;;4.50;99.90;;;;;;5013892;28;19909;-76
2023/03/19 01:21:26;;;;;;;;;;;4.40;99.90;;;;;;5015829;28;19920;-77
2023/03/19 01:23:52;;;;;;;;;;;4.40;99.90;;;;;;5019856;28;20329;-77
2023/03/19 01:26:18;;;;;;;;;;;4.40;99.90;;;;;;5003636;28;20000;-77
2023/03/19 01:28:43;;;;;;;;;;;4.30;99.90;;;;;;5004210;28;19917;-77
2023/03/19 01:31:09;;;;;;;;;;;4.20;99.90;;;;;;5021910;28;19910;-77
2023/03/19 01:33:36;;;;;;;;;;;4.20;99.90;;;;;;5004145;28;20288;-77
2023/03/19 01:36:03;;;;;;;;;;;4.10;99.90;;;;;;5009354;28;19913;-77
2023/03/19 01:38:29;;;;;;;;;;;4.10;99.90;;;;;;5041335;28;19916;-77
2023/03/19 01:40:55;;;;;;;;;;;4.10;99.90;;;;;;5040819;28;19940;-77
2023/03/19 01:43:23;;;;;;;;;;;4.20;99.90;;;;;;5040065;28;20696;-77
2023/03/19 01:45:51;;;;;;;;;;;4.20;99.90;;;;;;5040391;28;19909;-78
2023/03/19 01:48:33;;;;;;;;;;;4.20;99.90;;;;;;5039630;28;19916;-77
2023/03/19 01:50:59;;;;;;;;;;;4.30;99.90;;;;;;5037879;28;20361;-77
2023/03/19 01:53:27;;;;;;;;;;;4.30;99.90;;;;;;5038075;28;19917;-78
2023/03/19 01:55:56;;;;;;;;;;;4.30;99.90;;;;;;5038221;28;20007;-78
2023/03/19 01:58:21;;;;;;;;;;;4.30;99.90;;;;;;5038461;28;19935;-77
2023/03/19 02:00:47;;;;;;;;;;;4.30;99.90;;;;;;5038845;28;19967;-77
2023/03/19 02:03:12;;;;;;;;;;;4.30;99.90;;;;;;5038449;28;19936;-77
2023/03/19 02:05:40;;;;;;;;;;;4.30;99.90;;;;;;5038205;28;19913;-77
2023/03/19 02:08:07;;;;;;;;;;;4.20;99.90;;;;;;5039895;28;20001;-78
2023/03/19 02:10:33;;;;;;;;;;;4.20;99.90;;;;;;5040092;28;20277;-79
2023/03/19 02:12:59;;;;;;;;;;;4.20;99.90;;;;;;5036924;28;19919;-78
2023/03/19 02:15:25;;;;;;;;;;;4.20;99.90;;;;;;5019216;28;19921;-78
2023/03/19 02:17:50;;;;;;;;;;;4.20;99.90;;;;;;5037099;28;19917;-77
2023/03/19 02:20:31;;;;;;;;;;;4.20;99.90;;;;;;5037091;28;19917;-78
2023/03/19 02:23:15;;;;;;;;;;;4.10;99.90;;;;;;5036808;28;20007;-77
2023/03/19 02:25:47;;;;;;;;;;;4.00;99.90;;;;;;5036874;28;19916;-77
2023/03/19 02:28:17;;;;;;;;;;;3.90;99.90;;;;;;5031122;28;19909;-79
2023/03/19 02:30:43;;;;;;;;;;;3.90;99.90;;;;;;5037282;28;19922;-78
2023/03/19 02:33:13;;;;;;;;;;;3.90;99.90;;;;;;5037818;28;19910;-78
2023/03/19 02:35:39;;;;;;;;;;;3.90;99.90;;;;;;5037028;28;19913;-78
2023/03/19 02:38:04;;;;;;;;;;;3.90;99.90;;;;;;5019805;28;19920;-77
2023/03/19 02:40:37;;;;;;;;;;;3.90;99.90;;;;;;5037629;28;19910;-78
2023/03/19 02:43:02;;;;;;;;;;;3.90;99.90;;;;;;5037391;28;20363;-77
2023/03/19 02:45:30;;;;;;;;;;;3.90;99.90;;;;;;5020027;28;19909;-78
2023/03/19 02:47:56;;;;;;;;;;;3.90;99.90;;;;;;5037716;28;19958;-77
2023/03/19 02:50:21;;;;;;;;;;;3.80;99.90;;;;;;5019521;28;19917;-78
2023/03/19 02:52:48;;;;;;;;;;;3.80;99.90;;;;;;5037632;28;19967;-77
2023/03/19 02:55:14;;;;;;;;;;;3.80;99.90;;;;;;5019765;28;20318;-77
2023/03/19 02:57:39;;;;;;;;;;;3.80;99.90;;;;;;5037721;28;19947;-78
2023/03/19 03:00:06;;;;;;;;;;;3.80;99.90;;;;;;5020706;28;19913;-77
2023/03/19 03:02:32;;;;;;;;;;;3.80;99.90;;;;;;5011169;28;19910;-77
2023/03/19 03:04:57;;;;;;;;;;;3.80;99.90;;;;;;5019073;28;19917;-77
2023/03/19 03:07:23;;;;;;;;;;;3.80;99.90;;;;;;5020093;28;19928;-78
2023/03/19 03:09:48;;;;;;;;;;;3.80;99.90;;;;;;5023384;28;19913;-77
2023/03/19 03:12:14;;;;;;;;;;;3.70;99.90;;;;;;5023654;28;19953;-77
2023/03/19 03:14:40;;;;;;;;;;;3.60;99.90;;;;;;5024234;28;20292;-77
2023/03/19 03:17:07;;;;;;;;;;;3.60;99.90;;;;;;5041188;28;19917;-78
2023/03/19 03:19:32;;;;;;;;;;;3.60;99.90;;;;;;5002935;28;19920;-77
2023/03/19 03:21:59;;;;;;;;;;;3.60;99.90;;;;;;5013498;28;19913;-77
2023/03/19 03:24:25;;;;;;;;;;;3.60;99.90;;;;;;5022237;28;19913;-78
2023/03/19 03:26:51;;;;;;;;;;;3.60;99.90;;;;;;5020285;28;19992;-77
2023/03/19 03:29:17;;;;;;;;;;;3.50;99.90;;;;;;5021919;28;19920;-78
2023/03/19 03:31:42;;;;;;;;;;;3.50;99.90;;;;;;5040639;28;19941;-78
2023/03/19 03:34:08;;;;;;;;;;;3.50;99.90;;;;;;5023337;28;19967;-78
2023/03/19 03:36:33;;;;;;;;;;;3.50;99.90;;;;;;5023452;28;19959;-78
2023/03/19 03:38:59;;;;;;;;;;;3.50;99.90;;;;;;5040969;28;19913;-78
2023/03/19 03:41:25;;;;;;;;;;;3.50;99.90;;;;;;5040454;28;19909;-78
2023/03/19 03:43:51;;;;;;;;;;;3.50;99.90;;;;;;5040518;28;19932;-78
2023/03/19 03:46:16;;;;;;;;;;;3.50;99.90;;;;;;5021982;28;19920;-78
2023/03/19 03:48:42;;;;;;;;;;;3.50;99.90;;;;;;5021537;28;19913;-78
2023/03/19 03:51:07;;;;;;;;;;;3.50;99.90;;;;;;5022064;28;19936;-78
2023/03/19 03:53:33;;;;;;;;;;;3.50;99.90;;;;;;5040326;28;19932;-78
2023/03/19 03:55:59;;;;;;;;;;;3.50;99.90;;;;;;5003721;28;19945;-78
2023/03/19 03:58:24;;;;;;;;;;;3.40;99.90;;;;;;5020489;28;20292;-77
2023/03/19 04:00:51;;;;;;;;;;;3.40;99.90;;;;;;5038342;28;19916;-77
2023/03/19 04:03:17;;;;;;;;;;;3.40;99.90;;;;;;5004260;28;20357;-77
2023/03/19 04:05:43;;;;;;;;;;;3.40;99.90;;;;;;5035392;28;19945;-77
2023/03/19 04:08:09;;;;;;;;;;;3.40;99.90;;;;;;5020562;28;19913;-77
2023/03/19 04:10:35;;;;;;;;;;;3.40;99.90;;;;;;5036977;28;19924;-77
2023/03/19 04:13:01;;;;;;;;;;;3.40;99.90;;;;;;5019359;28;19920;-77
2023/03/19 04:15:26;;;;;;;;;;;3.40;99.90;;;;;;5036988;28;19917;-78
2023/03/19 04:17:52;;;;;;;;;;;3.40;99.90;;;;;;5036953;28;19918;-78
2023/03/19 04:20:18;;;;;;;;;;;3.40;99.90;;;;;;5037379;28;19913;-77
2023/03/19 04:22:44;;;;;;;;;;;3.40;99.90;;;;;;5037534;28;19935;-77
2023/03/19 04:25:09;;;;;;;;;;;3.40;99.90;;;;;;5038843;28;20311;-77
2023/03/19 04:27:35;;;;;;;;;;;3.40;99.90;;;;;;5045811;28;19916;-78
2023/03/19 04:30:01;;;;;;;;;;;3.40;99.90;;;;;;5036249;28;19917;-78
2023/03/19 04:32:26;;;;;;;;;;;3.30;99.90;;;;;;5035866;28;19915;-78
2023/03/19 04:34:52;;;;;;;;;;;3.30;99.90;;;;;;5035094;28;19967;-78
2023/03/19 04:37:18;;;;;;;;;;;3.20;99.90;;;;;;5035209;28;19913;-78
2023/03/19 04:39:44;;;;;;;;;;;3.10;99.90;;;;;;5017988;28;19964;-78
2023/03/19 04:42:10;;;;;;;;;;;3.00;99.90;;;;;;5035201;28;19913;-78
2023/03/19 04:44:36;;;;;;;;;;;2.90;99.90;;;;;;5035589;28;20004;-78
2023/03/19 04:47:02;;;;;;;;;;;2.90;99.90;;;;;;5017195;28;19909;-77
2023/03/19 04:49:28;;;;;;;;;;;2.90;99.90;;;;;;5017139;28;19963;-77
2023/03/19 04:51:55;;;;;;;;;;;2.90;99.90;;;;;;5020940;28;19920;-77
2023/03/19 04:54:20;;;;;;;;;;;2.80;99.90;;;;;;5014232;28;19913;-77
2023/03/19 04:56:46;;;;;;;;;;;2.80;99.90;;;;;;5008207;28;19909;-77
2023/03/19 04:59:13;;;;;;;;;;;2.70;99.90;;;;;;5016811;28;19913;-77
2023/03/19 05:01:38;;;;;;;;;;;2.70;99.90;;;;;;5034446;28;20469;-77
2023/03/19 05:04:04;;;;;;;;;;;2.70;99.90;;;;;;5033909;28;19917;-77
2023/03/19 05:06:31;;;;;;;;;;;2.70;99.90;;;;;;5026925;28;19928;-77
2023/03/19 05:08:56;;;;;;;;;;;2.80;99.90;;;;;;5016393;28;20364;-77
2023/03/19 05:11:22;;;;;;;;;;;2.80;99.90;;;;;;5015634;28;19920;-77
2023/03/19 05:13:47;;;;;;;;;;;2.90;99.90;;;;;;4981808;28;20016;-77
2023/03/19 05:16:13;;;;;;;;;;;2.90;99.90;;;;;;5015967;28;19964;-77
2023/03/19 05:18:39;;;;;;;;;;;2.90;99.90;;;;;;5033716;28;20296;-77
2023/03/19 05:21:05;;;;;;;;;;;2.80;99.90;;;;;;5033822;28;19917;-80
2023/03/19 05:23:31;;;;;;;;;;;2.80;99.90;;;;;;5034638;28;19913;-77
2023/03/19 05:25:59;;;;;;;;;;;2.80;99.90;;;;;;5013121;28;19910;-76
2023/03/19 05:28:26;;;;;;;;;;;2.80;99.90;;;;;;4996912;28;20293;-77
2023/03/19 05:30:51;;;;;;;;;;;2.90;99.90;;;;;;5015980;28;19973;-79
2023/03/19 05:33:18;;;;;;;;;;;2.80;99.90;;;;;;5034660;28;20365;-76
2023/03/19 05:35:44;;;;;;;;;;;2.80;99.90;;;;;;5013300;28;19921;-77
2023/03/19 05:38:10;;;;;;;;;;;2.80;99.90;;;;;;5014627;28;19945;-77
2023/03/19 05:40:36;;;;;;;;;;;2.80;99.90;;;;;;5015116;28;19943;-77
2023/03/19 05:43:01;;;;;;;;;;;2.80;99.90;;;;;;5018392;28;19913;-77
2023/03/19 05:45:27;;;;;;;;;;;2.80;99.90;;;;;;5013277;28;19916;-76
2023/03/19 05:47:53;;;;;;;;;;;2.80;99.90;;;;;;5000097;28;19913;-77
2023/03/19 05:50:19;;;;;;;;;;;2.80;99.90;;;;;;5016765;28;19917;-77
2023/03/19 05:52:44;;;;;;;;;;;2.70;99.90;;;;;;5034107;28;20266;-77
2023/03/19 05:55:10;;;;;;;;;;;2.70;99.90;;;;;;5034159;28;19967;-76
2023/03/19 05:57:36;;;;;;;;;;;2.70;99.90;;;;;;5033467;28;19967;-77
2023/03/19 06:00:16;;;;;;;;;;;2.70;99.90;;;;;;5034202;28;19909;-77
2023/03/19 06:02:42;;;;;;;;;;;2.70;99.90;;;;;;5000470;28;19920;-77
2023/03/19 06:05:08;;;;;;;;;;;2.70;99.90;;;;;;5034463;28;19922;-76
2023/03/19 06:07:34;;;;;;;;;;;2.70;99.90;;;;;;5011853;28;19937;-77
2023/03/19 06:09:59;;;;;;;;;;;2.70;99.90;;;;;;5034874;28;19913;-77
2023/03/19 06:12:25;;;;;;;;;;;2.70;99.90;;;;;;5019951;28;20254;-76
2023/03/19 06:14:51;;;;;;;;;;;2.70;99.90;;;;;;5037225;28;19914;-76
2023/03/19 06:17:17;;;;;;;;;;;2.80;99.90;;;;;;5037094;28;20327;-77
2023/03/19 06:19:42;;;;;;;;;;;2.80;99.90;;;;;;5019398;28;20003;-76
2023/03/19 06:22:08;;;;;;;;;;;2.80;99.90;;;;;;5019041;28;19913;-78
2023/03/19 06:24:34;;;;;;;;;;;2.90;99.90;;;;;;5018696;28;19915;-77
2023/03/19 06:27:00;;;;;;;;;;;2.90;99.90;;;;;;5036894;28;19955;-76
2023/03/19 06:29:25;;;;;;;;;;;3.00;99.90;;;;;;5036479;28;19913;-77
2023/03/19 06:31:51;;;;;;;;;;;3.00;99.90;;;;;;5036626;28;20365;-76
2023/03/19 06:34:17;;;;;;;;;;;3.00;99.90;;;;;;5002204;28;20428;-78
2023/03/19 06:36:43;;;;;;;;;;;3.10;99.90;;;;;;5036036;28;20277;-77
2023/03/19 06:39:09;;;;;;;;;;;3.10;99.90;;;;;;5035884;28;19913;-77
2023/03/19 06:41:35;;;;;;;;;;;3.20;99.90;;;;;;5035359;28;20306;-77
2023/03/19 06:44:01;;;;;;;;;;;3.10;99.90;;;;;;5018165;28;19999;-76
2023/03/19 06:46:27;;;;;;;;;;;3.20;99.90;;;;;;5018663;28;19953;-76
2023/03/19 06:48:53;;;;;;;;;;;3.20;99.90;;;;;;5036249;28;20258;-77
2023/03/19 06:51:19;;;;;;;;;;;3.20;99.90;;;;;;5002195;28;19913;-77
2023/03/19 06:53:45;;;;;;;;;;;3.30;99.90;;;;;;5035872;28;20434;-77
2023/03/19 06:56:11;;;;;;;;;;;3.40;99.90;;;;;;5036192;28;19917;-76
2023/03/19 06:58:36;;;;;;;;;;;3.40;99.90;;;;;;5019087;28;19913;-77
2023/03/19 07:01:02;;;;;;;;;;;3.50;99.90;;;;;;5036070;28;19976;-77
2023/03/19 07:03:28;;;;;;;;;;;3.60;99.90;;;;;;5037128;28;19971;-78
2023/03/19 07:05:54;;;;;;;;;;;3.70;99.90;;;;;;5015340;28;20297;-79
2023/03/19 07:08:19;;;;;;;;;;;3.80;99.90;;;;;;5019599;28;20328;-78
2023/03/19 07:10:45;;;;;;;;;;;3.90;99.90;;;;;;5037668;28;19917;-78
2023/03/19 07:13:10;;;;;;;;;;;4.00;99.90;;;;;;5037791;28;19996;-78
2023/03/19 07:15:36;;;;;;;;;;;4.10;99.90;;;;;;5019642;28;20281;-79
2023/03/19 07:18:02;;;;;;;;;;;4.10;99.90;;;;;;5019892;28;20380;-78
2023/03/19 07:20:28;;;;;;;;;;;4.20;99.90;;;;;;5036280;28;19909;-78
2023/03/19 07:22:54;;;;;;;;;;;4.30;99.90;;;;;;5018640;28;19920;-78
2023/03/19 07:25:20;;;;;;;;;;;4.40;99.90;;;;;;5019722;28;19944;-78
2023/03/19 07:27:45;;;;;;;;;;;4.50;99.90;;;;;;5019908;28;19913;-77
2023/03/19 07:30:12;;;;;;;;;;;4.60;99.90;;;;;;5019222;28;19909;-79
2023/03/19 07:32:37;;;;;;;;;;;4.70;99.90;;;;;;5018573;28;19916;-79
2023/03/19 07:35:04;;;;;;;;;;;4.80;99.90;;;;;;5036270;28;19917;-78
2023/03/19 07:37:30;;;;;;;;;;;4.90;99.90;;;;;;5018389;28;19909;-78
2023/03/19 07:39:56;;;;;;;;;;;4.90;99.90;;;;;;5036068;28;19964;-77
2023/03/19 07:42:21;;;;;;;;;;;5.00;99.90;;;;;;5018682;28;19948;-78
2023/03/19 07:44:47;;;;;;;;;;;5.10;99.90;;;;;;5035524;28;19914;-79
2023/03/19 07:47:12;;;;;;;;;;;5.20;99.90;;;;;;5035919;28;19913;-77
2023/03/19 07:49:38;;;;;;;;;;;5.20;99.90;;;;;;5036448;28;19909;-77
2023/03/19 07:52:03;;;;;;;;;;;5.30;99.90;;;;;;5002067;28;19918;-78
2023/03/19 07:54:30;;;;;;;;;;;5.50;99.90;;;;;;5018484;28;19960;-78
2023/03/19 07:56:55;;;;;;;;;;;5.50;99.90;;;;;;5035864;28;20365;-77
2023/03/19 07:59:21;;;;;;;;;;;5.60;99.90;;;;;;5001516;28;19919;-77
2023/03/19 08:01:46;;;;;;;;;;;5.70;99.90;;;;;;5035674;28;19920;-79
2023/03/19 08:04:12;;;;;;;;;;;5.70;99.90;;;;;;5018104;28;19913;-77
2023/03/19 08:06:38;;;;;;;;;;;5.80;99.90;;;;;;5017410;28;20345;-77
2023/03/19 08:09:04;;;;;;;;;;;6.00;99.90;;;;;;5035807;28;19937;-77
2023/03/19 08:11:30;;;;;;;;;;;6.10;99.90;;;;;;5035577;28;19964;-77
2023/03/19 08:13:55;;;;;;;;;;;6.30;99.90;;;;;;5017880;28;20361;-78
2023/03/19 08:16:21;;;;;;;;;;;6.40;99.90;;;;;;5018482;28;19913;-78
2023/03/19 08:18:47;;;;;;;;;;;6.50;99.90;;;;;;5002048;28;19913;-78
2023/03/19 08:21:12;;;;;;;;;;;6.60;99.90;;;;;;5036005;28;19956;-78
2023/03/19 08:23:38;;;;;;;;;;;6.60;99.90;;;;;;5042931;22;19948;-74
2023/03/19 08:26:03;;;;;;;;;;;6.70;99.90;;;;;;5016860;28;19952;-73
2023/03/19 08:28:29;;;;;;;;;;;6.80;99.90;;;;;;5016985;28;19913;-72
2023/03/19 08:30:54;;;;;;;;;;;7.00;99.90;;;;;;5034401;28;20007;-73
2023/03/19 08:33:20;;;;;;;;;;;7.10;99.90;;;;;;5034344;28;19909;-73
2023/03/19 08:35:46;;;;;;;;;;;7.20;99.90;;;;;;5034132;28;19975;-74
2023/03/19 08:38:12;;;;;;;;;;;7.40;99.90;;;;;;5034181;28;20008;-74
2023/03/19 08:40:37;;;;;;;;;;;7.60;99.90;;;;;;5032641;28;19932;-74
2023/03/19 08:43:03;;;;;;;;;;;7.70;99.90;;;;;;5033118;28;20376;-74
2023/03/19 08:45:29;;;;;;;;;;;7.80;99.90;;;;;;5034107;28;19913;-74
2023/03/19 08:47:56;;;;;;;;;;;8.00;99.90;;;;;;5035430;28;20296;-73
2023/03/19 08:50:22;;;;;;;;;;;8.20;99.90;;;;;;5035344;28;20430;-75
2023/03/19 08:52:48;;;;;;;;;;;8.30;99.90;;;;;;5033336;28;19996;-75
2023/03/19 08:55:14;;;;;;;;;;;8.50;99.90;;;;;;5033859;28;19913;-73
2023/03/19 08:57:40;;;;;;;;;;;8.70;99.90;;;;;;5016878;28;20024;-72
2023/03/19 09:00:06;;;;;;;;;;;8.90;99.90;;;;;;5034002;28;20384;-73
2023/03/19 09:02:32;;;;;;;;;;;9.00;99.90;;;;;;5033873;28;19936;-73
2023/03/19 09:04:57;;;;;;;;;;;9.10;99.90;;;;;;5015957;28;19913;-73
2023/03/19 09:07:23;;;;;;;;;;;9.20;99.90;;;;;;5033486;28;19996;-73
2023/03/19 09:09:48;;;;;;;;;;;9.30;99.90;;;;;;5033777;28;19952;-74
2023/03/19 09:12:15;;;;;;;;;;;9.40;99.90;;;;;;5016191;28;20353;-75
2023/03/19 09:14:42;;;;;;;;;;;9.50;99.90;;;;;;5033941;28;19913;-75
2023/03/19 09:17:08;;;;;;;;;;;9.50;99.90;;;;;;5016155;28;20280;-75
2023/03/19 09:19:33;;;;;;;;;;;9.60;99.90;;;;;;5034183;28;19909;-75
2023/03/19 09:21:59;;;;;;;;;;;9.80;99.90;;;;;;5034236;28;19941;-75
2023/03/19 09:24:25;;;;;;;;;;;9.90;99.90;;;;;;5031967;28;19921;-75
2023/03/19 09:26:51;;;;;;;;;;;10.00;99.90;;;;;;5033364;28;20336;-75
2023/03/19 09:29:17;;;;;;;;;;;10.10;99.90;;;;;;5034517;28;19913;-74
2023/03/19 09:31:43;;;;;;;;;;;10.10;99.90;;;;;;5033938;28;19920;-75
2023/03/19 09:34:08;;;;;;;;;;;10.20;99.90;;;;;;5033391;28;19909;-76
2023/03/19 09:36:35;;;;;;;;;;;10.30;99.90;;;;;;5033195;28;19948;-74
2023/03/19 09:39:01;;;;;;;;;;;10.40;99.90;;;;;;5034060;28;19917;-75
2023/03/19 09:41:30;;;;;;;;;;;10.60;99.90;;;;;;5033663;28;19917;-75
2023/03/19 09:44:11;;;;;;;;;;;10.70;99.90;;;;;;5034296;28;19911;-76
2023/03/19 09:47:00;;;;;;;;;;;10.90;99.90;;;;;;5037962;28;20331;-75
2023/03/19 09:49:47;;;;;;;;;;;11.20;99.90;;;;;;5000251;28;19909;-76
2023/03/19 09:52:28;;;;;;;;;;;11.60;99.90;;;;;;5037324;28;20392;-75
2023/03/19 09:54:55;;;;;;;;;;;12.10;99.90;;;;;;5037293;28;19964;-76
2023/03/19 09:57:21;;;;;;;;;;;12.60;99.90;;;;;;5037415;28;19909;-76
2023/03/19 09:59:47;;;;;;;;;;;12.70;99.90;;;;;;5037508;28;19909;-76
2023/03/19 10:02:28;;;;;;;;;;;12.80;99.90;;;;;;5037392;28;19909;-76
2023/03/19 10:05:10;;;;;;;;;;;12.90;99.90;;;;;;5037449;28;20004;-75
2023/03/19 10:07:38;;;;;;;;;;;13.00;99.90;;;;;;5036942;28;19917;-76
2023/03/19 10:10:15;;;;;;;;;;;13.00;99.90;;;;;;5036963;28;20011;-76
2023/03/19 10:12:44;;;;;;;;;;;13.00;99.90;;;;;;5036913;28;19909;-74
2023/03/19 10:15:27;;;;;;;;;;;12.90;99.90;;;;;;5019007;28;19913;-74
2023/03/19 10:17:58;;;;;;;;;;;12.90;99.90;;;;;;5037118;28;19917;-74
2023/03/19 10:20:29;;;;;;;;;;;13.00;99.90;;;;;;5036832;28;20272;-73
2023/03/19 10:23:14;;;;;;;;;;;13.10;99.90;;;;;;5036470;28;19910;-73
2023/03/19 10:25:41;;;;;;;;;;;13.00;99.90;;;;;;5036493;28;19917;-73
2023/03/19 10:28:12;;;;;;;;;;;13.00;99.90;;;;;;5034654;28;19913;-73
2023/03/19 10:30:38;;;;;;;;;;;13.00;99.30;;;;;;5034555;28;20336;-73
2023/03/19 10:33:16;;;;;;;;;;;12.80;99.30;;;;;;5016733;28;19952;-73
2023/03/19 10:35:48;;;;;;;;;;;12.80;99.40;;;;;;5034123;28;20324;-73
2023/03/19 10:38:23;;;;;;;;;;;12.70;99.90;;;;;;5034177;28;19909;-73
2023/03/19 10:40:57;;;;;;;;;;;12.70;99.90;;;;;;5035109;28;19932;-73
2023/03/19 10:43:25;;;;;;;;;;;12.70;99.10;;;;;;5034991;28;19959;-73
2023/03/19 10:45:55;;;;;;;;;;;12.70;99.90;;;;;;5036084;28;19913;-74
2023/03/19 10:48:24;;;;;;;;;;;12.80;99.90;;;;;;5035599;28;19909;-73
2023/03/19 10:50:55;;;;;;;;;;;12.90;99.70;;;;;;5035983;28;19964;-73
2023/03/19 10:53:22;;;;;;;;;;;12.90;99.90;;;;;;5034411;28;19955;-73
2023/03/19 10:55:55;;;;;;;;;;;12.90;99.10;;;;;;5016701;28;20372;-73
2023/03/19 10:58:28;;;;;;;;;;;12.90;98.50;;;;;;5035496;28;19909;-73
2023/03/19 11:00:55;;;;;;;;;;;12.90;98.90;;;;;;5031308;28;19917;-73
2023/03/19 11:03:32;;;;;;;;;;;12.90;98.90;;;;;;5035521;28;19999;-73
2023/03/19 11:06:05;;;;;;;;;;;12.80;98.90;;;;;;5035437;28;19916;-73
2023/03/19 11:08:33;;;;;;;;;;;12.90;99.20;;;;;;5036030;28;19916;-73
2023/03/19 11:10:58;;;;;;;;;;;12.90;98.90;;;;;;5035398;28;19909;-73
2023/03/19 11:13:25;;;;;;;;;;;13.10;98.30;;;;;;5017958;28;19913;-73
2023/03/19 11:15:56;;;;;;;;;;;13.20;99.10;;;;;;5035983;28;19913;-73
2023/03/19 11:18:28;;;;;;;;;;;13.30;98.90;;;;;;5035298;28;19956;-73
2023/03/19 11:20:57;;;;;;;;;;;13.30;97.30;;;;;;5021069;28;19949;-73
2023/03/19 11:23:26;;;;;;;;;;;13.20;97.70;;;;;;5009404;28;19913;-74
2023/03/19 11:25:52;;;;;;;;;;;13.30;97.30;;;;;;5034763;28;19913;-73
2023/03/19 11:28:20;;;;;;;;;;;13.30;97.80;;;;;;5034885;28;19917;-73
2023/03/19 11:30:54;;;;;;;;;;;13.40;97.30;;;;;;5035411;28;19909;-73
2023/03/19 11:33:40;;;;;;;;;;;13.40;96.40;;;;;;5034410;28;19909;-73
2023/03/19 11:36:06;;;;;;;;;;;13.50;96.00;;;;;;5035007;28;19975;-73
2023/03/19 11:38:35;;;;;;;;;;;13.50;96.30;;;;;;5034625;28;20365;-73
2023/03/19 11:41:20;;;;;;;;;;;13.50;95.70;;;;;;5034487;28;20431;-73
2023/03/19 11:43:49;;;;;;;;;;;13.50;96.10;;;;;;5035104;28;19909;-73
2023/03/19 11:46:15;;;;;;;;;;;13.60;95.80;;;;;;5017352;28;19909;-73
2023/03/19 11:48:46;;;;;;;;;;;13.60;95.70;;;;;;5034465;28;19963;-73
2023/03/19 11:51:38;;;;;;;;;;;13.50;95.80;;;;;;5017294;28;19958;-73
2023/03/19 11:54:19;;;;;;;;;;;13.50;95.40;;;;;;5013238;28;19999;-73
2023/03/19 11:56:47;;;;;;;;;;;13.40;96.50;;;;;;5033731;28;19909;-73
2023/03/19 11:59:16;;;;;;;;;;;13.40;96.30;;;;;;5016948;28;19909;-74
2023/03/19 12:02:00;;;;;;;;;;;13.50;95.40;;;;;;5034683;28;19909;-73
2023/03/19 12:04:32;;;;;;;;;;;13.50;96.10;;;;;;5016828;28;19909;-73
2023/03/19 12:07:02;;;;;;;;;;;13.50;95.50;;;;;;5016125;28;20000;-73
2023/03/19 12:09:27;;;;;;;;;;;13.50;96.00;;;;;;5016885;28;19993;-73
2023/03/19 12:11:56;;;;;;;;;;;13.50;95.40;;;;;;5016896;28;20352;-73
2023/03/19 12:14:24;;;;;;;;;;;13.40;95.10;;;;;;5034130;28;20269;-73
2023/03/19 12:16:50;;;;;;;;;;;13.40;95.00;;;;;;5016747;28;19909;-73
2023/03/19 12:19:25;;;;;;;;;;;13.40;95.30;;;;;;5035015;28;19909;-73
2023/03/19 12:21:57;;;;;;;;;;;13.40;95.90;;;;;;5033313;28;19909;-73
2023/03/19 12:24:31;;;;;;;;;;;13.60;95.60;;;;;;5016814;28;20403;-73
2023/03/19 12:27:16;;;;;;;;;;;13.80;94.80;;;;;;5034701;28;19959;-73
2023/03/19 12:29:42;;;;;;;;;;;13.90;94.10;;;;;;5034372;28;19959;-73
2023/03/19 12:32:08;;;;;;;;;;;14.00;94.00;;;;;;5034348;28;19937;-74
2023/03/19 12:34:40;;;;;;;;;;;14.00;93.20;;;;;;5016380;28;19936;-74
2023/03/19 12:37:28;;;;;;;;;;;14.00;93.70;;;;;;5034212;28;19909;-74
2023/03/19 12:40:03;;;;;;;;;;;14.10;92.40;;;;;;5034263;28;19909;-74
2023/03/19 12:42:31;;;;;;;;;;;14.20;93.90;;;;;;5034197;28;19909;-74
2023/03/19 12:44:58;;;;;;;;;;;14.20;92.90;;;;;;5034002;28;19956;-73
2023/03/19 12:47:25;;;;;;;;;;;14.20;92.20;;;;;;5034129;28;19921;-73
2023/03/19 12:49:56;;;;;;;;;;;14.20;92.90;;;;;;5034096;28;19915;-74
2023/03/19 12:52:27;;;;;;;;;;;14.30;93.40;;;;;;5034207;28;19968;-73
2023/03/19 12:55:05;;;;;;;;;;;14.40;92.70;;;;;;5033892;28;19920;-73
2023/03/19 12:57:41;;;;;;;;;;;14.50;92.80;;;;;;5034151;28;20369;-74
2023/03/19 13:00:30;;;;;;;;;;;14.60;91.80;;;;;;5015932;28;19956;-74
2023/03/19 13:03:14;;;;;;;;;;;14.60;91.40;;;;;;5028320;28;19909;-73
2023/03/19 13:05:40;;;;;;;;;;;14.60;91.40;;;;;;5033981;28;20299;-73
2023/03/19 13:08:06;;;;;;;;;;;14.60;91.10;;;;;;5014771;28;20000;-73
2023/03/19 13:10:31;;;;;;;;;;;14.70;90.60;;;;;;5033741;28;19996;-74
2023/03/19 13:12:59;;;;;;;;;;;14.70;91.10;;;;;;5033719;28;19931;-74
2023/03/19 13:15:30;;;;;;;;;;;14.80;90.80;;;;;;5015932;28;20015;-74
2023/03/19 13:18:10;;;;;;;;;;;14.80;90.30;;;;;;5033711;28;19944;-74
2023/03/19 13:20:42;;;;;;;;;;;14.90;90.80;;;;;;5037506;28;20476;-74
2023/03/19 13:23:10;;;;;;;;;;;14.90;90.10;;;;;;5037313;28;19909;-74
2023/03/19 13:25:38;;;;;;;;;;;14.90;88.80;;;;;;5037855;28;19909;-74
2023/03/19 13:28:11;;;;;;;;;;;14.90;90.30;;;;;;5037245;28;19932;-74
2023/03/19 13:30:41;;;;;;;;;;;14.90;89.60;;;;;;5037675;28;19975;-74
2023/03/19 13:33:17;;;;;;;;;;;15.00;88.10;;;;;;5021015;28;20289;-74
2023/03/19 13:35:43;;;;;;;;;;;15.00;89.90;;;;;;5037469;28;19913;-74
2023/03/19 13:38:19;;;;;;;;;;;15.00;90.00;;;;;;5037236;28;20436;-74
2023/03/19 13:40:49;;;;;;;;;;;15.00;88.90;;;;;;5037454;28;19992;-74
2023/03/19 13:43:27;;;;;;;;;;;14.90;88.10;;;;;;5019572;28;20369;-74
2023/03/19 13:46:02;;;;;;;;;;;14.80;89.20;;;;;;5037431;28;19909;-74
2023/03/19 13:48:28;;;;;;;;;;;14.70;90.60;;;;;;5019652;28;20417;-74
2023/03/19 13:51:02;;;;;;;;;;;14.70;89.70;;;;;;5037235;28;20358;-73
2023/03/19 13:53:27;;;;;;;;;;;14.60;90.00;;;;;;5036930;28;19909;-73
2023/03/19 13:55:56;;;;;;;;;;;14.50;89.00;;;;;;5037428;28;20320;-74
2023/03/19 14:01:25;;;;;;;;;;;14.20;90.50;;;;;;5037218;28;20004;-73
2023/03/19 14:04:01;;;;;;;;;;;14.20;90.50;;;;;;5019356;28;20364;-74
2023/03/19 14:06:40;;;;;;;;;;;14.20;90.80;;;;;;5036795;28;19913;-73
2023/03/19 14:09:27;;;;;;;;;;;14.20;90.20;;;;;;5036986;28;19916;-73
2023/03/19 14:11:53;;;;;;;;;;;14.30;90.60;;;;;;5036917;28;20003;-74
2023/03/19 14:14:21;;;;;;;;;;;14.30;90.70;;;;;;5036841;28;20000;-73
2023/03/19 14:16:47;;;;;;;;;;;14.40;90.50;;;;;;5037222;28;20403;-74
2023/03/19 14:19:16;;;;;;;;;;;14.40;90.90;;;;;;5036812;28;20009;-74
2023/03/19 14:21:44;;;;;;;;;;;14.40;89.40;;;;;;5036783;28;19909;-73
2023/03/19 14:24:34;;;;;;;;;;;14.40;89.90;;;;;;5036681;28;19921;-74
2023/03/19 14:27:11;;;;;;;;;;;14.40;90.00;;;;;;5037377;28;20392;-74
2023/03/19 14:29:40;;;;;;;;;;;14.30;90.00;;;;;;5036236;28;19967;-73
2023/03/19 14:32:12;;;;;;;;;;;14.20;90.20;;;;;;5016635;28;20345;-73
2023/03/19 14:34:40;;;;;;;;;;;14.20;91.00;;;;;;5027316;28;19982;-73